Time;durP1;ratioP1;P1;durP2;ratioP2;P2;SDS_P1;SDS_P2;PMS_P1;PMS_P2;Temp;Humidity;BMP_temperature;BMP_pressure;BME280_temperature;BME280_humidity;BME280_pressure;Samples;Min_cycle;Max_cycle;Signal;HPM_P1;HPM_P2
2021/10/17 00:00:28;;;;;;;;;;;4.60;99.90;;;;;;5067793;28;19920;-65
2021/10/17 00:02:55;;;;;;;;;;;4.60;99.90;;;;;;5084121;28;19931;-66
2021/10/17 00:05:25;;;;;;;;;;;4.60;99.90;;;;;;5083343;28;19934;-66
2021/10/17 00:07:52;;;;;;;;;;;4.60;99.90;;;;;;5080996;28;19932;-66
2021/10/17 00:10:24;;;;;;;;;;;4.60;99.90;;;;;;5072356;28;19927;-66
2021/10/17 00:12:53;;;;;;;;;;;4.60;99.90;;;;;;5073671;28;19927;-66
2021/10/17 00:15:21;;;;;;;;;;;4.60;99.90;;;;;;5053242;28;19928;-66
2021/10/17 00:17:48;;;;;;;;;;;4.60;99.90;;;;;;5060807;28;19928;-66
2021/10/17 00:20:17;;;;;;;;;;;4.60;99.90;;;;;;5074353;28;19927;-66
2021/10/17 00:22:44;;;;;;;;;;;4.60;99.90;;;;;;5077313;28;19990;-66
2021/10/17 00:25:11;;;;;;;;;;;4.60;99.90;;;;;;5072833;28;20360;-66
2021/10/17 00:27:39;;;;;;;;;;;4.60;99.90;;;;;;5074421;28;20410;-66
2021/10/17 00:30:09;;;;;;;;;;;4.50;99.90;;;;;;5065172;28;19981;-66
2021/10/17 00:32:36;;;;;;;;;;;4.50;99.90;;;;;;5085860;28;20034;-66
2021/10/17 00:35:05;;;;;;;;;;;4.50;99.90;;;;;;5076583;28;19924;-66
2021/10/17 00:37:32;;;;;;;;;;;4.50;99.90;;;;;;5081917;28;19931;-66
2021/10/17 00:40:00;;;;;;;;;;;4.50;99.90;;;;;;5075979;28;20366;-66
2021/10/17 00:42:28;;;;;;;;;;;4.40;99.90;;;;;;5075744;28;19921;-66
2021/10/17 00:44:58;;;;;;;;;;;4.40;99.90;;;;;;5078119;28;19931;-66
2021/10/17 00:47:25;;;;;;;;;;;4.40;99.90;;;;;;5079022;28;19927;-65
2021/10/17 00:49:53;;;;;;;;;;;4.40;99.90;;;;;;5103267;28;19986;-66
2021/10/17 00:52:20;;;;;;;;;;;4.40;99.90;;;;;;5078475;28;19931;-66
2021/10/17 00:54:48;;;;;;;;;;;4.30;99.90;;;;;;5092774;28;19920;-66
2021/10/17 00:57:15;;;;;;;;;;;4.30;99.90;;;;;;5077687;28;20382;-66
2021/10/17 00:59:43;;;;;;;;;;;4.30;99.90;;;;;;5076179;28;20450;-66
2021/10/17 01:02:11;;;;;;;;;;;4.30;99.90;;;;;;5075783;28;19928;-66
2021/10/17 01:04:39;;;;;;;;;;;4.20;99.90;;;;;;5087011;28;19920;-66
2021/10/17 01:07:08;;;;;;;;;;;4.20;99.90;;;;;;5073288;28;19973;-66
2021/10/17 01:09:36;;;;;;;;;;;4.20;99.90;;;;;;5106891;28;20401;-66
2021/10/17 01:12:05;;;;;;;;;;;4.20;99.90;;;;;;5085202;28;19923;-66
2021/10/17 01:14:33;;;;;;;;;;;4.20;99.90;;;;;;5096111;28;19921;-66
2021/10/17 01:17:02;;;;;;;;;;;4.20;99.90;;;;;;5090214;28;19971;-66
2021/10/17 01:19:29;;;;;;;;;;;4.10;99.90;;;;;;5101035;28;20464;-66
2021/10/17 01:22:07;;;;;;;;;;;4.20;99.90;;;;;;5085658;28;19920;-66
2021/10/17 01:24:34;;;;;;;;;;;4.10;99.90;;;;;;5070648;28;19930;-66
2021/10/17 01:27:01;;;;;;;;;;;4.10;99.90;;;;;;5076049;28;20366;-66
2021/10/17 01:29:28;;;;;;;;;;;4.10;99.90;;;;;;5095674;28;19927;-66
2021/10/17 01:31:56;;;;;;;;;;;4.00;99.90;;;;;;5074195;28;20355;-66
2021/10/17 01:34:25;;;;;;;;;;;4.00;99.90;;;;;;5074807;28;19920;-66
2021/10/17 01:36:52;;;;;;;;;;;4.00;99.90;;;;;;5077575;28;20035;-66
2021/10/17 01:39:21;;;;;;;;;;;4.00;99.90;;;;;;5096646;28;19920;-66
2021/10/17 01:41:49;;;;;;;;;;;3.90;99.90;;;;;;5091615;28;19920;-66
2021/10/17 01:44:26;;;;;;;;;;;3.90;99.90;;;;;;5097467;28;19928;-66
2021/10/17 01:46:54;;;;;;;;;;;3.90;99.90;;;;;;5104531;28;19977;-66
2021/10/17 01:49:24;;;;;;;;;;;3.90;99.90;;;;;;5092051;28;20362;-66
2021/10/17 01:51:53;;;;;;;;;;;3.80;99.90;;;;;;5071833;28;19997;-66
2021/10/17 01:54:21;;;;;;;;;;;3.90;99.90;;;;;;5068124;28;20375;-66
2021/10/17 01:56:48;;;;;;;;;;;3.90;99.90;;;;;;5094171;28;19920;-66
2021/10/17 01:59:18;;;;;;;;;;;3.90;99.90;;;;;;5102873;28;19944;-66
2021/10/17 02:01:51;;;;;;;;;;;3.90;99.90;;;;;;5098113;28;20359;-66
2021/10/17 02:04:18;;;;;;;;;;;3.90;99.90;;;;;;5079208;28;19974;-66
2021/10/17 02:06:46;;;;;;;;;;;3.90;99.90;;;;;;5095952;28;19950;-66
2021/10/17 02:09:14;;;;;;;;;;;3.90;99.90;;;;;;5067348;28;19931;-66
2021/10/17 02:11:42;;;;;;;;;;;3.90;99.90;;;;;;5095528;28;20370;-66
2021/10/17 02:14:12;;;;;;;;;;;3.90;99.90;;;;;;5072601;28;21173;-66
2021/10/17 02:16:39;;;;;;;;;;;3.90;99.90;;;;;;5068354;28;20000;-66
2021/10/17 02:19:06;;;;;;;;;;;3.90;99.90;;;;;;5075441;28;19966;-66
2021/10/17 02:21:36;;;;;;;;;;;3.80;99.90;;;;;;5089017;28;19943;-66
2021/10/17 02:24:05;;;;;;;;;;;3.80;99.90;;;;;;5063556;28;20397;-66
2021/10/17 02:26:33;;;;;;;;;;;3.80;99.90;;;;;;5052001;28;19921;-66
2021/10/17 02:29:11;;;;;;;;;;;3.70;99.90;;;;;;5075207;28;19959;-65
2021/10/17 02:31:59;;;;;;;;;;;3.70;99.90;;;;;;5089465;28;19986;-65
2021/10/17 02:34:26;;;;;;;;;;;3.70;99.90;;;;;;5075038;28;19952;-65
2021/10/17 02:36:53;;;;;;;;;;;3.60;99.90;;;;;;5089104;28;19933;-65
2021/10/17 02:39:21;;;;;;;;;;;3.60;99.90;;;;;;5092760;28;20398;-65
2021/10/17 02:41:48;;;;;;;;;;;3.60;99.90;;;;;;5073697;28;19966;-65
2021/10/17 02:44:15;;;;;;;;;;;3.50;99.90;;;;;;5082183;28;19924;-65
2021/10/17 02:46:42;;;;;;;;;;;3.50;99.90;;;;;;5083905;28;20270;-65
2021/10/17 02:49:10;;;;;;;;;;;3.50;99.90;;;;;;5083250;28;19924;-65
2021/10/17 02:51:37;;;;;;;;;;;3.50;99.90;;;;;;5105495;28;19939;-65
2021/10/17 02:54:06;;;;;;;;;;;3.40;99.90;;;;;;5090019;28;19931;-66
2021/10/17 02:56:34;;;;;;;;;;;3.40;99.90;;;;;;5075614;28;19920;-67
2021/10/17 02:59:01;;;;;;;;;;;3.40;99.90;;;;;;5100895;28;19953;-65
2021/10/17 03:01:28;;;;;;;;;;;3.40;99.90;;;;;;5088050;28;19955;-66
2021/10/17 03:03:56;;;;;;;;;;;3.40;99.90;;;;;;5102090;28;19920;-66
2021/10/17 03:06:28;;;;;;;;;;;3.40;99.90;;;;;;5085709;28;19924;-66
2021/10/17 03:08:55;;;;;;;;;;;3.40;99.90;;;;;;5092668;28;19924;-66
2021/10/17 03:11:24;;;;;;;;;;;3.30;99.90;;;;;;5078021;28;19920;-66
2021/10/17 03:13:51;;;;;;;;;;;3.30;99.90;;;;;;5084139;28;19924;-66
2021/10/17 03:16:26;;;;;;;;;;;3.30;99.90;;;;;;5091853;28;19927;-66
2021/10/17 03:18:53;;;;;;;;;;;3.30;99.90;;;;;;5074921;28;19970;-66
2021/10/17 03:21:20;;;;;;;;;;;3.20;99.90;;;;;;5090795;28;19985;-65
2021/10/17 03:23:49;;;;;;;;;;;3.20;99.90;;;;;;5092298;28;20454;-65
2021/10/17 03:26:16;;;;;;;;;;;3.20;99.90;;;;;;5101676;28;19931;-65
2021/10/17 03:28:46;;;;;;;;;;;3.20;99.90;;;;;;5096191;28;20026;-65
2021/10/17 03:31:13;;;;;;;;;;;3.20;99.90;;;;;;5102663;28;19920;-66
2021/10/17 03:33:41;;;;;;;;;;;3.20;99.90;;;;;;5084422;28;19924;-66
2021/10/17 03:36:12;;;;;;;;;;;3.20;99.90;;;;;;5073506;28;19931;-66
2021/10/17 03:38:41;;;;;;;;;;;3.20;99.90;;;;;;5073972;28;19960;-66
2021/10/17 03:41:13;;;;;;;;;;;3.20;99.90;;;;;;5090299;28;19932;-66
2021/10/17 03:43:45;;;;;;;;;;;3.20;99.90;;;;;;5061128;28;20426;-66
2021/10/17 03:46:15;;;;;;;;;;;3.20;99.90;;;;;;5087485;28;20364;-66
2021/10/17 03:48:45;;;;;;;;;;;3.20;99.90;;;;;;5108209;28;19924;-66
2021/10/17 03:51:16;;;;;;;;;;;3.20;99.90;;;;;;5107723;28;19930;-66
2021/10/17 03:53:43;;;;;;;;;;;3.20;99.90;;;;;;5079991;28;19921;-66
2021/10/17 03:56:10;;;;;;;;;;;3.20;99.90;;;;;;5068384;28;20294;-66
2021/10/17 03:58:38;;;;;;;;;;;3.20;99.90;;;;;;5079130;28;19924;-66
2021/10/17 04:01:05;;;;;;;;;;;3.30;99.90;;;;;;5093318;28;19930;-66
2021/10/17 04:03:32;;;;;;;;;;;3.40;99.90;;;;;;5088086;28;19928;-66
2021/10/17 04:05:59;;;;;;;;;;;3.50;99.90;;;;;;5105686;28;19919;-66
2021/10/17 04:08:27;;;;;;;;;;;3.60;99.90;;;;;;5071938;28;20426;-66
2021/10/17 04:10:54;;;;;;;;;;;3.70;99.90;;;;;;5060392;28;19999;-66
2021/10/17 04:13:22;;;;;;;;;;;3.70;99.90;;;;;;5074698;28;20027;-66
2021/10/17 04:15:49;;;;;;;;;;;3.80;99.90;;;;;;5076384;28;20382;-66
2021/10/17 04:18:16;;;;;;;;;;;3.80;99.90;;;;;;5074597;28;19920;-66
2021/10/17 04:20:44;;;;;;;;;;;3.90;99.90;;;;;;5086988;28;19920;-66
2021/10/17 04:23:12;;;;;;;;;;;4.00;99.90;;;;;;5089630;28;20349;-66
2021/10/17 04:25:39;;;;;;;;;;;4.10;99.90;;;;;;5100916;28;19943;-66
2021/10/17 04:28:12;;;;;;;;;;;4.10;99.90;;;;;;5069998;28;19985;-66
2021/10/17 04:30:39;;;;;;;;;;;4.20;99.90;;;;;;5083955;28;19930;-66
2021/10/17 04:33:06;;;;;;;;;;;4.20;99.90;;;;;;5099923;28;20045;-66
2021/10/17 04:35:38;;;;;;;;;;;4.30;99.90;;;;;;5057856;28;19921;-66
2021/10/17 04:38:05;;;;;;;;;;;4.40;99.90;;;;;;5075749;28;19925;-66
2021/10/17 04:40:37;;;;;;;;;;;4.50;99.90;;;;;;5072357;28;19920;-66
2021/10/17 04:43:04;;;;;;;;;;;4.60;99.90;;;;;;5084691;28;19920;-66
2021/10/17 04:45:31;;;;;;;;;;;4.60;99.90;;;;;;5059547;28;19931;-66
2021/10/17 04:47:58;;;;;;;;;;;4.70;99.90;;;;;;5079862;28;19927;-66
2021/10/17 04:50:25;;;;;;;;;;;4.70;99.90;;;;;;5074945;28;20397;-66
2021/10/17 04:52:56;;;;;;;;;;;4.70;99.90;;;;;;5091528;28;19932;-66
2021/10/17 04:55:24;;;;;;;;;;;4.80;99.90;;;;;;5093551;28;19920;-66
2021/10/17 04:57:52;;;;;;;;;;;4.80;99.90;;;;;;5106998;28;20026;-66
2021/10/17 05:00:22;;;;;;;;;;;4.70;99.90;;;;;;5102482;28;20091;-66
2021/10/17 05:02:56;;;;;;;;;;;4.70;99.90;;;;;;5079992;28;19924;-66
2021/10/17 05:05:23;;;;;;;;;;;4.80;99.90;;;;;;5088726;28;19924;-66
2021/10/17 05:07:51;;;;;;;;;;;4.70;99.90;;;;;;5095889;28;19939;-66
2021/10/17 05:10:18;;;;;;;;;;;4.70;99.90;;;;;;5082034;28;20347;-66
2021/10/17 05:12:45;;;;;;;;;;;4.60;99.90;;;;;;5081835;28;19920;-66
2021/10/17 05:15:14;;;;;;;;;;;4.60;99.90;;;;;;5096234;28;20014;-66
2021/10/17 05:17:41;;;;;;;;;;;4.50;99.90;;;;;;5075652;28;20001;-66
2021/10/17 05:20:09;;;;;;;;;;;4.40;99.90;;;;;;5070424;28;19924;-66
2021/10/17 05:22:36;;;;;;;;;;;4.40;99.90;;;;;;5072557;28;20054;-66
2021/10/17 05:25:04;;;;;;;;;;;4.30;99.90;;;;;;5057389;28;19926;-66
2021/10/17 05:27:31;;;;;;;;;;;4.30;99.90;;;;;;5071199;28;20393;-66
2021/10/17 05:30:00;;;;;;;;;;;4.20;99.90;;;;;;5087744;28;19920;-66
2021/10/17 05:32:30;;;;;;;;;;;4.10;99.90;;;;;;5074769;28;20447;-66
2021/10/17 05:34:58;;;;;;;;;;;4.10;99.90;;;;;;5080566;28;20060;-66
2021/10/17 05:37:25;;;;;;;;;;;4.00;99.90;;;;;;5098772;28;19921;-66
2021/10/17 05:39:53;;;;;;;;;;;4.00;99.90;;;;;;5066126;28;19924;-66
2021/10/17 05:42:21;;;;;;;;;;;4.00;99.90;;;;;;5053681;28;19925;-66
2021/10/17 05:44:48;;;;;;;;;;;4.00;99.90;;;;;;5077578;28;19925;-66
2021/10/17 05:47:16;;;;;;;;;;;4.00;99.90;;;;;;5076344;28;19928;-66
2021/10/17 05:49:43;;;;;;;;;;;4.00;99.90;;;;;;5098604;28;19924;-66
2021/10/17 05:52:11;;;;;;;;;;;4.00;99.90;;;;;;5085430;28;20424;-66
2021/10/17 05:54:39;;;;;;;;;;;4.00;99.90;;;;;;5089637;28;20460;-66
2021/10/17 05:57:08;;;;;;;;;;;4.10;99.90;;;;;;5084755;28;20294;-66
2021/10/17 05:59:35;;;;;;;;;;;4.10;99.90;;;;;;5078784;28;19973;-66
2021/10/17 06:02:03;;;;;;;;;;;4.10;99.90;;;;;;5079525;28;19928;-66
2021/10/17 06:04:35;;;;;;;;;;;4.10;99.90;;;;;;5096169;28;19991;-66
2021/10/17 06:07:07;;;;;;;;;;;4.20;99.90;;;;;;5080135;28;19924;-66
2021/10/17 06:09:35;;;;;;;;;;;4.30;99.90;;;;;;5086177;28;20414;-66
2021/10/17 06:12:04;;;;;;;;;;;4.30;99.90;;;;;;5099405;28;20409;-66
2021/10/17 06:14:32;;;;;;;;;;;4.40;99.90;;;;;;5094978;28;19982;-66
2021/10/17 06:16:59;;;;;;;;;;;4.50;99.90;;;;;;5071429;28;20254;-66
2021/10/17 06:19:27;;;;;;;;;;;4.60;99.90;;;;;;5056193;28;19964;-66
2021/10/17 06:21:57;;;;;;;;;;;4.60;99.90;;;;;;5069797;28;19928;-66
2021/10/17 06:24:24;;;;;;;;;;;4.70;99.90;;;;;;5086016;28;19921;-66
2021/10/17 06:26:53;;;;;;;;;;;4.70;99.90;;;;;;5085643;28;20302;-66
2021/10/17 06:29:20;;;;;;;;;;;4.80;99.90;;;;;;5086549;28;19920;-66
2021/10/17 06:31:47;;;;;;;;;;;4.80;99.90;;;;;;5092953;28;20247;-66
2021/10/17 06:34:15;;;;;;;;;;;5.00;99.90;;;;;;5073022;28;19920;-66
2021/10/17 06:36:43;;;;;;;;;;;5.00;99.90;;;;;;5094404;28;20028;-66
2021/10/17 06:39:10;;;;;;;;;;;5.10;99.90;;;;;;5095343;28;20240;-66
2021/10/17 06:41:37;;;;;;;;;;;5.20;99.90;;;;;;5102641;28;19985;-66
2021/10/17 06:44:15;;;;;;;;;;;5.30;99.90;;;;;;5080996;28;20385;-66
2021/10/17 06:46:44;;;;;;;;;;;5.50;99.90;;;;;;5046149;28;19927;-66
2021/10/17 06:49:11;;;;;;;;;;;5.60;99.90;;;;;;5077085;28;20268;-66
2021/10/17 06:51:40;;;;;;;;;;;5.70;99.90;;;;;;5080094;28;19920;-66
2021/10/17 06:54:08;;;;;;;;;;;5.80;99.90;;;;;;5068978;28;20350;-66
2021/10/17 06:56:36;;;;;;;;;;;5.90;99.90;;;;;;5052374;28;20386;-66
2021/10/17 06:59:03;;;;;;;;;;;6.10;99.90;;;;;;5083114;28;19974;-65
2021/10/17 07:01:34;;;;;;;;;;;6.20;99.90;;;;;;5086371;28;19978;-65
2021/10/17 07:04:02;;;;;;;;;;;6.40;99.90;;;;;;5089161;28;20251;-65
2021/10/17 07:06:37;;;;;;;;;;;6.50;99.90;;;;;;5085055;28;20386;-65
2021/10/17 07:09:08;;;;;;;;;;;6.60;99.90;;;;;;5082673;28;19978;-65
2021/10/17 07:11:45;;;;;;;;;;;6.70;99.90;;;;;;5067622;28;20275;-65
2021/10/17 07:14:23;;;;;;;;;;;6.80;99.90;;;;;;5094470;28;20667;-65
2021/10/17 07:17:03;;;;;;;;;;;6.70;99.90;;;;;;5088665;28;20445;-65
2021/10/17 07:19:32;;;;;;;;;;;6.60;99.90;;;;;;5075967;28;19928;-65
2021/10/17 07:21:59;;;;;;;;;;;6.70;99.90;;;;;;5057300;28;19936;-65
2021/10/17 07:24:31;;;;;;;;;;;6.70;99.90;;;;;;5070049;28;19932;-65
2021/10/17 07:26:59;;;;;;;;;;;6.80;99.90;;;;;;5087030;28;19920;-65
2021/10/17 07:29:27;;;;;;;;;;;6.80;99.90;;;;;;5074060;28;19924;-65
2021/10/17 07:31:55;;;;;;;;;;;6.70;99.90;;;;;;5083681;28;20125;-65
2021/10/17 07:34:23;;;;;;;;;;;6.60;99.90;;;;;;5064844;28;20216;-65
2021/10/17 07:36:50;;;;;;;;;;;6.50;99.90;;;;;;5087143;28;19920;-66
2021/10/17 07:39:21;;;;;;;;;;;6.50;99.90;;;;;;5097260;28;19985;-65
2021/10/17 07:41:50;;;;;;;;;;;6.60;99.90;;;;;;5096481;28;19996;-66
2021/10/17 07:44:19;;;;;;;;;;;6.60;99.90;;;;;;5066800;28;19925;-66
2021/10/17 07:46:59;;;;;;;;;;;6.60;99.90;;;;;;5062223;28;19921;-67
2021/10/17 07:49:29;;;;;;;;;;;6.80;99.90;;;;;;5084418;28;20034;-66
2021/10/17 07:51:57;;;;;;;;;;;6.90;99.90;;;;;;5061796;28;20335;-66
2021/10/17 07:54:26;;;;;;;;;;;7.10;99.90;;;;;;5081136;28;19920;-66
2021/10/17 07:56:54;;;;;;;;;;;7.20;99.90;;;;;;5061162;28;20023;-66
2021/10/17 07:59:29;;;;;;;;;;;7.20;99.90;;;;;;5074169;28;19971;-66
2021/10/17 08:01:56;;;;;;;;;;;7.40;99.90;;;;;;5092417;28;19996;-66
2021/10/17 08:04:40;;;;;;;;;;;7.50;99.90;;;;;;5095074;28;19925;-66
2021/10/17 08:07:16;;;;;;;;;;;7.70;99.90;;;;;;5059204;28;19934;-66
2021/10/17 08:09:45;;;;;;;;;;;7.90;99.90;;;;;;5074789;28;19951;-66
2021/10/17 08:12:13;;;;;;;;;;;8.00;99.90;;;;;;5079460;28;19951;-66
2021/10/17 08:14:40;;;;;;;;;;;8.00;99.90;;;;;;5077594;28;19924;-67
2021/10/17 08:17:07;;;;;;;;;;;8.20;99.90;;;;;;5077340;28;20414;-67
2021/10/17 08:19:55;;;;;;;;;;;8.30;99.90;;;;;;5082288;28;20333;-66
2021/10/17 08:22:23;;;;;;;;;;;8.30;99.90;;;;;;5074608;28;19920;-66
2021/10/17 08:24:50;;;;;;;;;;;8.40;99.90;;;;;;5084916;28;20042;-67
2021/10/17 08:27:18;;;;;;;;;;;8.40;99.90;;;;;;5088253;28;19939;-67
2021/10/17 08:29:47;;;;;;;;;;;8.40;99.90;;;;;;5057177;28;19924;-67
2021/10/17 08:32:15;;;;;;;;;;;8.50;99.90;;;;;;5090015;28;19999;-66
2021/10/17 08:34:44;;;;;;;;;;;8.60;99.90;;;;;;5095805;28;20022;-66
2021/10/17 08:37:13;;;;;;;;;;;8.70;99.90;;;;;;5074775;28;20015;-66
2021/10/17 08:40:04;;;;;;;;;;;8.60;99.90;;;;;;5065125;28;20004;-66
2021/10/17 08:42:54;;;;;;;;;;;8.70;99.90;;;;;;5064183;28;19924;-65
2021/10/17 08:45:47;;;;;;;;;;;8.80;99.90;;;;;;5052180;28;19925;-65
2021/10/17 08:48:18;;;;;;;;;;;8.80;99.90;;;;;;5040285;28;20393;-65
2021/10/17 08:50:51;;;;;;;;;;;8.90;99.90;;;;;;5055655;28;20354;-65
2021/10/17 08:53:19;;;;;;;;;;;8.90;99.90;;;;;;5056168;28;19948;-66
2021/10/17 08:56:02;;;;;;;;;;;8.90;99.90;;;;;;5051998;28;20379;-65
2021/10/17 08:58:37;;;;;;;;;;;9.00;99.90;;;;;;5051260;28;20034;-65
2021/10/17 09:01:11;;;;;;;;;;;9.10;99.90;;;;;;5037281;28;19955;-65
2021/10/17 09:03:51;;;;;;;;;;;9.10;99.90;;;;;;5058773;28;20073;-65
2021/10/17 09:06:21;;;;;;;;;;;9.10;99.90;;;;;;5050159;28;20452;-65
2021/10/17 09:09:10;;;;;;;;;;;9.00;99.90;;;;;;5056839;28;19927;-66
2021/10/17 09:11:45;;;;;;;;;;;9.00;99.90;;;;;;5062372;28;20005;-66
2021/10/17 09:14:13;;;;;;;;;;;9.00;99.90;;;;;;5055678;28;19924;-66
2021/10/17 09:16:42;;;;;;;;;;;9.00;99.90;;;;;;5043322;28;19946;-66
2021/10/17 09:19:12;;;;;;;;;;;9.10;99.90;;;;;;5069777;28;20285;-65
2021/10/17 09:21:54;;;;;;;;;;;9.20;99.90;;;;;;5064009;28;19971;-65
2021/10/17 09:24:48;;;;;;;;;;;9.30;99.90;;;;;;5055088;28;20280;-66
2021/10/17 09:27:17;;;;;;;;;;;9.50;99.90;;;;;;5030191;28;19936;-65
2021/10/17 09:29:45;;;;;;;;;;;9.60;99.90;;;;;;5060902;28;19928;-65
2021/10/17 09:32:15;;;;;;;;;;;9.60;99.90;;;;;;5072190;28;19974;-65
2021/10/17 09:34:51;;;;;;;;;;;9.60;99.90;;;;;;5081441;28;19919;-66
2021/10/17 09:37:18;;;;;;;;;;;9.90;99.90;;;;;;5084506;28;20375;-66
2021/10/17 09:40:24;;;;;;;;;;;10.20;99.90;;;;;;5074430;28;20332;-66
2021/10/17 09:43:26;;;;;;;;;;;10.40;99.90;;;;;;5068463;28;19932;-65
2021/10/17 09:46:08;;;;;;;;;;;10.80;99.90;;;;;;5023519;28;20345;-66
2021/10/17 09:48:36;;;;;;;;;;;11.00;99.90;;;;;;5069098;28;19932;-66
2021/10/17 09:51:05;;;;;;;;;;;11.00;99.90;;;;;;5061573;28;19926;-66
2021/10/17 09:53:42;;;;;;;;;;;11.10;99.90;;;;;;5067656;28;20371;-66
2021/10/17 09:56:21;;;;;;;;;;;11.20;99.90;;;;;;5070102;28;20036;-65
2021/10/17 09:58:52;;;;;;;;;;;11.20;99.90;;;;;;5057912;28;20477;-65
2021/10/17 10:01:22;;;;;;;;;;;11.40;99.90;;;;;;5051642;28;19924;-65
2021/10/17 10:03:51;;;;;;;;;;;11.50;99.90;;;;;;5039546;28;19943;-65
2021/10/17 10:06:18;;;;;;;;;;;11.80;99.90;;;;;;5064489;28;19927;-66
2021/10/17 10:08:53;;;;;;;;;;;11.90;99.90;;;;;;5076152;28;19924;-66
2021/10/17 10:11:22;;;;;;;;;;;11.90;99.90;;;;;;5067463;28;20278;-66
2021/10/17 10:13:54;;;;;;;;;;;12.10;99.90;;;;;;5071337;28;19934;-66
2021/10/17 10:16:23;;;;;;;;;;;12.40;99.90;;;;;;5087337;28;20300;-66
2021/10/17 10:18:52;;;;;;;;;;;12.50;99.90;;;;;;5081319;28;19977;-66
2021/10/17 10:21:20;;;;;;;;;;;12.50;99.90;;;;;;5069455;28;20293;-66
2021/10/17 10:23:52;;;;;;;;;;;12.50;99.90;;;;;;5073754;28;19924;-66
2021/10/17 10:26:21;;;;;;;;;;;12.80;99.90;;;;;;5071387;28;19983;-65
2021/10/17 10:28:49;;;;;;;;;;;13.10;99.90;;;;;;5072349;28;19974;-65
2021/10/17 10:31:35;;;;;;;;;;;13.40;99.90;;;;;;5066033;28;20027;-66
2021/10/17 10:34:02;;;;;;;;;;;13.70;99.90;;;;;;5076870;28;19924;-66
2021/10/17 10:36:40;;;;;;;;;;;14.10;99.90;;;;;;5082207;28;19934;-66
2021/10/17 10:39:08;;;;;;;;;;;14.40;99.90;;;;;;5061307;28;20290;-65
2021/10/17 10:41:44;;;;;;;;;;;15.00;99.90;;;;;;5072290;28;20067;-66
2021/10/17 10:44:14;;;;;;;;;;;15.40;99.90;;;;;;5074191;28;19924;-65
2021/10/17 10:46:47;;;;;;;;;;;15.80;99.90;;;;;;5074002;28;20081;-66
2021/10/17 10:49:33;;;;;;;;;;;16.10;99.90;;;;;;5083344;28;19920;-66
2021/10/17 10:52:00;;;;;;;;;;;16.40;99.90;;;;;;5062210;28;19925;-66
2021/10/17 10:54:27;;;;;;;;;;;16.60;99.90;;;;;;5085376;28;20398;-66
2021/10/17 10:56:58;;;;;;;;;;;16.70;99.90;;;;;;5087119;28;19935;-66
2021/10/17 10:59:45;;;;;;;;;;;16.50;99.90;;;;;;5078048;28;20355;-66
2021/10/17 11:02:18;;;;;;;;;;;16.50;99.90;;;;;;5062298;28;19926;-65
2021/10/17 11:04:45;;;;;;;;;;;16.50;99.90;;;;;;5093809;28;20263;-67
2021/10/17 11:07:19;;;;;;;;;;;16.50;99.90;;;;;;5079941;28;19932;-65
2021/10/17 11:09:48;;;;;;;;;;;16.60;99.90;;;;;;5073505;28;19924;-67
2021/10/17 11:12:36;;;;;;;;;;;16.60;99.90;;;;;;5082920;28;20201;-67
2021/10/17 11:15:04;;;;;;;;;;;16.60;99.90;;;;;;5082943;28;19930;-67
2021/10/17 11:17:31;;;;;;;;;;;16.60;99.90;;;;;;5070186;27;19923;-67
2021/10/17 11:20:17;;;;;;;;;;;16.50;99.90;;;;;;5080272;28;20030;-65
2021/10/17 11:22:45;;;;;;;;;;;16.50;99.90;;;;;;5084225;28;20330;-66
2021/10/17 11:25:15;;;;;;;;;;;16.60;99.90;;;;;;5117099;28;20059;-66
2021/10/17 11:27:42;;;;;;;;;;;16.70;99.90;;;;;;5062745;28;19928;-68
2021/10/17 11:30:19;;;;;;;;;;;16.60;99.90;;;;;;5065218;28;19990;-66
2021/10/17 11:32:46;;;;;;;;;;;16.70;99.90;;;;;;5047128;28;20378;-66
2021/10/17 11:35:14;;;;;;;;;;;16.50;99.90;;;;;;5054432;28;19952;-67
2021/10/17 11:37:49;;;;;;;;;;;16.50;99.90;;;;;;5042347;28;20395;-66
2021/10/17 11:40:16;;;;;;;;;;;16.50;99.90;;;;;;5046098;28;19936;-66
2021/10/17 11:42:48;;;;;;;;;;;16.60;99.90;;;;;;5047755;28;20024;-67
2021/10/17 11:45:16;;;;;;;;;;;16.60;99.90;;;;;;5046804;28;20348;-65
2021/10/17 11:47:44;;;;;;;;;;;16.70;99.90;;;;;;5044782;28;19933;-66
2021/10/17 11:50:16;;;;;;;;;;;16.70;99.90;;;;;;5046844;28;19928;-66
2021/10/17 11:52:48;;;;;;;;;;;16.80;99.90;;;;;;5046786;28;19932;-67
2021/10/17 11:55:25;;;;;;;;;;;16.70;99.90;;;;;;5046686;28;19925;-66
2021/10/17 11:57:53;;;;;;;;;;;16.70;99.90;;;;;;5047498;28;19932;-66
2021/10/17 12:00:24;;;;;;;;;;;16.70;99.90;;;;;;5046155;28;19929;-66
2021/10/17 12:02:51;;;;;;;;;;;16.60;99.90;;;;;;5044682;28;19929;-66
2021/10/17 12:05:20;;;;;;;;;;;16.50;99.90;;;;;;5044006;28;20296;-66
2021/10/17 12:07:50;;;;;;;;;;;16.50;99.90;;;;;;5044616;28;20306;-66
2021/10/17 12:10:17;;;;;;;;;;;16.70;99.90;;;;;;5044419;28;19925;-66
2021/10/17 12:12:44;;;;;;;;;;;16.80;99.90;;;;;;5046312;28;19932;-66
2021/10/17 12:15:12;;;;;;;;;;;16.70;99.90;;;;;;5046516;28;20397;-66
2021/10/17 12:17:40;;;;;;;;;;;16.80;99.90;;;;;;5061055;28;20016;-66
2021/10/17 12:20:14;;;;;;;;;;;16.70;99.90;;;;;;5041176;28;19932;-66
2021/10/17 12:22:41;;;;;;;;;;;16.70;99.90;;;;;;5033812;28;19932;-66
2021/10/17 12:25:11;;;;;;;;;;;16.80;99.90;;;;;;5041591;28;19929;-66
2021/10/17 12:27:43;;;;;;;;;;;17.00;99.90;;;;;;5046905;28;19929;-67
2021/10/17 12:30:12;;;;;;;;;;;17.30;99.90;;;;;;5039874;28;19929;-67
2021/10/17 12:32:51;;;;;;;;;;;17.60;99.90;;;;;;5026562;28;19929;-66
2021/10/17 12:35:24;;;;;;;;;;;18.40;99.90;;;;;;5040744;28;19926;-66
2021/10/17 12:37:51;;;;;;;;;;;20.10;99.90;;;;;;5032726;28;20384;-66
2021/10/17 12:40:19;;;;;;;;;;;21.50;99.90;;;;;;5033265;28;20379;-66
2021/10/17 12:42:49;;;;;;;;;;;22.10;99.90;;;;;;5032057;28;20019;-66
2021/10/17 12:45:17;;;;;;;;;;;21.40;99.90;;;;;;5032466;28;19951;-67
2021/10/17 12:47:53;;;;;;;;;;;20.50;99.90;;;;;;5019576;28;19933;-67
2021/10/17 12:50:25;;;;;;;;;;;20.10;99.90;;;;;;5032135;28;19925;-67
2021/10/17 12:52:54;;;;;;;;;;;19.50;99.90;;;;;;5032171;28;20382;-67
2021/10/17 12:55:36;;;;;;;;;;;18.90;99.90;;;;;;5025959;28;19930;-66
2021/10/17 12:58:13;;;;;;;;;;;18.70;99.90;;;;;;5026528;28;19925;-67
2021/10/17 13:00:41;;;;;;;;;;;18.40;99.90;;;;;;5025804;28;19935;-67
2021/10/17 13:03:19;;;;;;;;;;;18.30;99.90;;;;;;5026110;28;19939;-66
2021/10/17 13:05:56;;;;;;;;;;;18.20;99.90;;;;;;5031798;28;19925;-66
2021/10/17 13:08:29;;;;;;;;;;;17.90;99.90;;;;;;5031370;28;20372;-67
2021/10/17 13:11:06;;;;;;;;;;;17.70;99.90;;;;;;5023936;28;19929;-67
2021/10/17 13:13:33;;;;;;;;;;;17.60;99.90;;;;;;5032630;28;19925;-66
2021/10/17 13:16:01;;;;;;;;;;;17.30;99.90;;;;;;5032256;28;19929;-66
2021/10/17 13:18:28;;;;;;;;;;;17.20;99.90;;;;;;5022168;28;19925;-66
2021/10/17 13:20:55;;;;;;;;;;;17.10;99.90;;;;;;5024098;28;20272;-66
2021/10/17 13:23:22;;;;;;;;;;;17.00;99.90;;;;;;5031184;28;20426;-67
2021/10/17 13:25:56;;;;;;;;;;;16.90;99.90;;;;;;5029309;28;19951;-67
2021/10/17 13:28:25;;;;;;;;;;;16.90;99.90;;;;;;5032897;28;19968;-66
2021/10/17 13:30:54;;;;;;;;;;;16.80;99.90;;;;;;5026526;28;20351;-66
2021/10/17 13:33:22;;;;;;;;;;;16.70;99.90;;;;;;5025308;28;19965;-67
2021/10/17 13:35:49;;;;;;;;;;;16.60;99.90;;;;;;5027288;28;19936;-67
2021/10/17 13:38:16;;;;;;;;;;;16.70;99.90;;;;;;5029459;28;19936;-66
2021/10/17 13:40:44;;;;;;;;;;;16.80;99.90;;;;;;5032367;28;19928;-66
2021/10/17 13:43:11;;;;;;;;;;;16.90;99.90;;;;;;5022953;28;20016;-67
2021/10/17 13:45:38;;;;;;;;;;;17.00;99.90;;;;;;5030742;28;19992;-67
2021/10/17 13:48:05;;;;;;;;;;;17.00;99.90;;;;;;5031017;28;19925;-67
2021/10/17 13:50:33;;;;;;;;;;;17.10;99.90;;;;;;5025127;28;20459;-67
2021/10/17 13:53:00;;;;;;;;;;;17.10;99.90;;;;;;5030661;28;20003;-68
2021/10/17 13:55:28;;;;;;;;;;;17.10;99.90;;;;;;5031974;28;19925;-66
2021/10/17 13:57:55;;;;;;;;;;;17.30;99.90;;;;;;5028337;28;19929;-67
2021/10/17 14:00:26;;;;;;;;;;;17.40;99.90;;;;;;5031186;28;20334;-67
2021/10/17 14:02:54;;;;;;;;;;;17.60;99.90;;;;;;5026567;28;19925;-66
2021/10/17 14:05:22;;;;;;;;;;;17.80;99.90;;;;;;5029728;28;20383;-67
2021/10/17 14:07:49;;;;;;;;;;;17.90;99.90;;;;;;5027845;28;19929;-67
2021/10/17 14:10:16;;;;;;;;;;;17.90;99.90;;;;;;5027689;28;19936;-66
2021/10/17 14:12:44;;;;;;;;;;;18.10;99.90;;;;;;5031250;28;19925;-66
2021/10/17 14:15:11;;;;;;;;;;;18.20;99.90;;;;;;5031600;28;20391;-66
2021/10/17 14:17:38;;;;;;;;;;;18.10;99.90;;;;;;5028220;28;21468;-66
2021/10/17 14:20:07;;;;;;;;;;;18.00;99.90;;;;;;5021902;28;19932;-66
2021/10/17 14:22:34;;;;;;;;;;;17.80;99.90;;;;;;5036201;28;20441;-67
2021/10/17 14:25:01;;;;;;;;;;;17.60;99.90;;;;;;5035347;28;19983;-67
2021/10/17 14:27:28;;;;;;;;;;;17.50;99.90;;;;;;5022612;28;20847;-66
2021/10/17 14:29:55;;;;;;;;;;;17.50;99.90;;;;;;5025309;28;19925;-66
2021/10/17 14:32:22;;;;;;;;;;;17.50;99.90;;;;;;5027922;28;19956;-66
2021/10/17 14:34:50;;;;;;;;;;;17.30;99.90;;;;;;5017091;28;19980;-66
2021/10/17 14:37:17;;;;;;;;;;;17.20;99.90;;;;;;5031468;28;20403;-66
2021/10/17 14:39:46;;;;;;;;;;;17.00;99.90;;;;;;5034238;28;19932;-67
2021/10/17 14:42:19;;;;;;;;;;;16.80;99.90;;;;;;5021900;28;20356;-67